Orbital elements of COSMOS 2251 DEB
| Launched | 15 June 1993 |
| Flight ended | – |
| Launch site | Plesetsk Missile and Space Complex, Russia |
| Owner | Commonwealth of Independent States (former USSR) |
| NORAD ID | 33911 |
| Date fetched |
Epoch osculation |
Inc. [°] |
Ecc. | RA asc node [hr] |
Arg Peri. [°] |
Mean anom [°] |
Mean motion [rev/day] |
Abs. mag |
| Date fetched |
Epoch osculation |
Inc. [°] |
Ecc. | RA asc node [hr] |
Arg Peri. [°] |
Mean anom [°] |
Mean motion [rev/day] |
Abs. mag |
| 2026 May 03 17:57 | 2026 Apr 30 12:31:36 | 74.0889 | 0.00124 | 16.7142 | 144.5189 | 342.9304 | 14.78729 | – |
| 2026 May 02 17:57 | 2026 Apr 30 12:31:36 | 74.0889 | 0.00124 | 16.7142 | 144.5189 | 342.9304 | 14.78729 | – |
| 2026 May 01 17:56 | 2026 Apr 30 12:31:36 | 74.0889 | 0.00124 | 16.7142 | 144.5189 | 342.9304 | 14.78729 | – |
| 2026 Apr 30 17:56 | 2026 Apr 30 12:31:36 | 74.0889 | 0.00124 | 16.7142 | 144.5189 | 342.9304 | 14.78729 | – |
| 2026 Apr 29 17:57 | 2026 Apr 24 11:43:48 | 74.0885 | 0.00130 | 17.5022 | 157.6882 | 342.9304 | 14.78729 | – |
| 2026 Apr 28 17:56 | 2026 Apr 24 11:43:48 | 74.0885 | 0.00130 | 17.5022 | 157.6882 | 342.9304 | 14.78729 | – |
| 2026 Apr 27 17:58 | 2026 Apr 24 11:43:48 | 74.0885 | 0.00130 | 17.5022 | 157.6882 | 342.9304 | 14.78729 | – |
| 2026 Apr 26 17:58 | 2026 Apr 24 11:43:48 | 74.0885 | 0.00130 | 17.5022 | 157.6882 | 342.9304 | 14.78729 | – |
| 2026 Apr 25 17:58 | 2026 Apr 24 11:43:48 | 74.0885 | 0.00130 | 17.5022 | 157.6882 | 342.9304 | 14.78729 | – |
| 2026 Apr 24 17:59 | 2026 Apr 24 11:43:48 | 74.0885 | 0.00130 | 17.5022 | 157.6882 | 342.9304 | 14.78729 | – |
| 2026 Apr 23 17:57 | 2026 Apr 18 06:19:53 | 74.0887 | 0.00134 | 18.3151 | 170.7609 | 342.9304 | 14.78729 | – |
| 2026 Apr 22 17:57 | 2026 Apr 18 06:19:53 | 74.0887 | 0.00134 | 18.3151 | 170.7609 | 342.9304 | 14.78729 | – |
| 2026 Apr 21 17:57 | 2026 Apr 18 06:19:53 | 74.0887 | 0.00134 | 18.3151 | 170.7609 | 342.9304 | 14.78729 | – |
| 2026 Apr 20 17:57 | 2026 Apr 18 06:19:53 | 74.0887 | 0.00134 | 18.3151 | 170.7609 | 342.9304 | 14.78729 | – |
| 2026 Apr 19 17:58 | 2026 Apr 18 06:19:53 | 74.0887 | 0.00134 | 18.3151 | 170.7609 | 342.9304 | 14.78729 | – |
| 2026 Apr 18 17:56 | 2026 Apr 12 07:21:51 | 74.0891 | 0.00136 | 19.0930 | 183.5371 | 342.9304 | 14.78729 | – |
| 2026 Apr 16 17:57 | 2026 Apr 12 07:21:51 | 74.0891 | 0.00136 | 19.0930 | 183.5371 | 342.9304 | 14.78729 | – |
| 2026 Apr 14 17:57 | 2026 Apr 12 07:21:51 | 74.0891 | 0.00136 | 19.0930 | 183.5371 | 342.9304 | 14.78729 | – |
| 2026 Apr 13 17:57 | 2026 Apr 12 07:21:51 | 74.0891 | 0.00136 | 19.0930 | 183.5371 | 342.9304 | 14.78729 | – |
| 2026 Apr 12 17:57 | 2026 Apr 08 14:03:04 | 74.0894 | 0.00138 | 19.5788 | 191.5268 | 342.9304 | 14.78729 | – |
| 2026 Apr 11 17:57 | 2026 Apr 08 14:03:04 | 74.0894 | 0.00138 | 19.5788 | 191.5268 | 342.9304 | 14.78729 | – |
| 2026 Apr 10 17:58 | 2026 Apr 08 14:03:04 | 74.0894 | 0.00138 | 19.5788 | 191.5268 | 342.9304 | 14.78729 | – |
| 2026 Apr 09 18:01 | 2026 Apr 08 14:03:04 | 74.0894 | 0.00138 | 19.5788 | 191.5268 | 342.9304 | 14.78729 | – |
| 2026 Apr 08 17:57 | 2026 Apr 08 14:03:04 | 74.0894 | 0.00138 | 19.5788 | 191.5268 | 342.9304 | 14.78729 | – |
| 2026 Apr 07 17:57 | 2026 Apr 01 18:17:34 | 74.0900 | 0.00140 | 20.4696 | 206.5106 | 342.9304 | 14.78729 | – |
| 2026 Apr 06 17:57 | 2026 Apr 01 18:17:34 | 74.0900 | 0.00140 | 20.4696 | 206.5106 | 342.9304 | 14.78729 | – |